createdAt,value
2018-02-02T00:01:12.200Z,5.40
2018-02-02T00:03:38.041Z,5.20
2018-02-02T00:06:03.897Z,4.80
2018-02-02T00:08:29.731Z,5.63
2018-02-02T00:10:55.583Z,5.47
2018-02-02T00:13:21.437Z,5.53
2018-02-02T00:15:47.279Z,5.27
2018-02-02T00:18:13.133Z,5.00
2018-02-02T00:20:38.984Z,5.20
2018-02-02T00:23:04.844Z,5.37
2018-02-02T00:25:30.710Z,4.70
2018-02-02T00:27:56.557Z,4.70
2018-02-02T00:30:22.442Z,5.07
2018-02-02T00:32:48.291Z,5.20
2018-02-02T00:35:14.148Z,4.67
2018-02-02T00:37:39.987Z,5.03
2018-02-02T00:40:05.849Z,5.00
2018-02-02T00:42:31.696Z,5.13
2018-02-02T00:44:57.543Z,5.10
2018-02-02T00:47:23.405Z,5.10
2018-02-02T00:49:49.319Z,4.67
2018-02-02T00:52:15.206Z,4.80
2018-02-02T00:54:41.057Z,4.70
2018-02-02T00:57:06.916Z,4.50
2018-02-02T00:59:32.795Z,4.83
2018-02-02T01:01:58.680Z,4.73
2018-02-02T01:04:24.480Z,4.70
2018-02-02T01:06:50.323Z,4.70
2018-02-02T01:09:16.171Z,5.07
2018-02-02T01:11:42.060Z,5.03
2018-02-02T01:14:07.897Z,4.30
2018-02-02T01:16:33.731Z,4.40
2018-02-02T01:18:59.585Z,4.50
2018-02-02T01:21:25.466Z,4.63
2018-02-02T01:23:51.322Z,4.70
2018-02-02T01:26:17.176Z,4.60
2018-02-02T01:28:43.010Z,4.57
2018-02-02T01:31:08.857Z,4.60
2018-02-02T01:33:34.695Z,4.73
2018-02-02T01:36:00.550Z,4.90
2018-02-02T01:38:26.396Z,4.70
2018-02-02T01:40:52.267Z,4.23
2018-02-02T01:43:18.109Z,4.60
2018-02-02T01:45:43.959Z,4.10
2018-02-02T01:48:10.084Z,4.67
2018-02-02T01:50:35.931Z,4.70
2018-02-02T01:53:01.823Z,4.33
2018-02-02T01:55:27.676Z,4.60
2018-02-02T01:57:53.609Z,4.50
2018-02-02T02:00:19.496Z,4.17
2018-02-02T02:02:45.336Z,4.30
2018-02-02T02:05:11.455Z,4.27
2018-02-02T02:07:37.297Z,4.10
2018-02-02T02:10:03.140Z,4.50
2018-02-02T02:12:29.003Z,4.17
2018-02-02T02:14:54.850Z,4.23
2018-02-02T02:17:20.696Z,4.33
2018-02-02T02:19:46.539Z,3.93
2018-02-02T02:22:12.380Z,4.60
2018-02-02T02:24:38.240Z,4.33
2018-02-02T02:27:04.144Z,4.20
2018-02-02T02:29:29.992Z,4.30
2018-02-02T02:31:55.842Z,4.10
2018-02-02T02:34:21.690Z,4.33
2018-02-02T02:36:47.556Z,4.37
2018-02-02T02:39:13.430Z,4.03
2018-02-02T02:41:39.267Z,3.63
2018-02-02T02:44:05.094Z,4.23
2018-02-02T02:46:30.954Z,4.40
2018-02-02T02:48:56.867Z,3.93
2018-02-02T02:51:22.720Z,4.27
2018-02-02T02:53:48.560Z,4.00
2018-02-02T02:56:14.403Z,4.40
2018-02-02T02:58:40.801Z,3.90
2018-02-02T03:01:06.661Z,4.30
2018-02-02T03:03:32.525Z,3.93
2018-02-02T03:05:58.381Z,4.20
2018-02-02T03:08:24.229Z,3.63
2018-02-02T03:10:50.083Z,3.87
2018-02-02T03:13:15.920Z,3.83
2018-02-02T03:15:41.770Z,4.20
2018-02-02T03:18:07.611Z,4.07
2018-02-02T03:20:33.459Z,3.97
2018-02-02T03:22:59.300Z,4.30
2018-02-02T03:25:25.137Z,4.10
2018-02-02T03:27:50.990Z,3.70
2018-02-02T03:30:16.832Z,3.80
2018-02-02T03:32:42.679Z,3.87
2018-02-02T03:35:08.522Z,4.00
2018-02-02T03:37:34.388Z,3.87
2018-02-02T03:40:00.271Z,3.97
2018-02-02T03:42:26.124Z,4.30
2018-02-02T03:44:51.960Z,3.83
2018-02-02T03:47:17.806Z,3.77
2018-02-02T03:49:43.656Z,3.80
2018-02-02T03:52:09.525Z,4.10
2018-02-02T03:54:35.359Z,3.83
2018-02-02T03:57:01.228Z,3.50
2018-02-02T03:59:27.058Z,3.80
2018-02-02T04:01:52.911Z,3.77
2018-02-02T04:04:19.172Z,3.60
2018-02-02T04:06:45.016Z,3.30
2018-02-02T04:09:10.863Z,3.50
2018-02-02T04:11:36.700Z,3.70
2018-02-02T04:14:02.547Z,3.57
2018-02-02T04:16:28.703Z,4.10
2018-02-02T04:18:54.552Z,3.80
2018-02-02T04:21:20.387Z,3.70
2018-02-02T04:23:46.241Z,3.80
2018-02-02T04:26:12.094Z,3.67
2018-02-02T04:28:38.049Z,3.40
2018-02-02T04:31:03.873Z,3.97
2018-02-02T04:33:29.724Z,3.60
2018-02-02T04:35:55.577Z,3.53
2018-02-02T04:38:21.436Z,3.40
2018-02-02T04:40:47.294Z,3.63
2018-02-02T04:43:13.145Z,3.60
2018-02-02T04:45:38.982Z,3.50
2018-02-02T04:48:04.836Z,3.70
2018-02-02T04:50:30.681Z,9.93
2018-02-02T04:52:56.547Z,9.00
2018-02-02T04:55:22.525Z,25.17
2018-02-02T04:57:48.382Z,19.53
2018-02-02T05:00:14.399Z,18.73
2018-02-02T05:02:40.242Z,16.63
2018-02-02T05:05:06.114Z,18.23
2018-02-02T05:07:32.079Z,19.23
2018-02-02T05:09:57.900Z,17.90
2018-02-02T05:12:23.761Z,17.40
2018-02-02T05:14:49.612Z,17.27
2018-02-02T05:17:15.483Z,17.50
2018-02-02T05:19:41.339Z,17.07
2018-02-02T05:22:07.191Z,16.67
2018-02-02T05:24:33.115Z,16.47
2018-02-02T05:26:58.955Z,15.57
2018-02-02T05:29:24.830Z,16.10
2018-02-02T05:31:50.688Z,15.27
2018-02-02T05:34:16.533Z,14.43
2018-02-02T05:36:42.388Z,14.13
2018-02-02T05:39:08.274Z,14.47
2018-02-02T05:41:34.151Z,14.80
2018-02-02T05:43:59.994Z,14.10
2018-02-02T05:46:25.839Z,14.13
2018-02-02T05:48:51.689Z,14.30
2018-02-02T05:51:17.536Z,12.97
2018-02-02T05:53:43.395Z,13.63
2018-02-02T05:56:09.255Z,13.50
2018-02-02T05:58:35.105Z,11.97
2018-02-02T06:01:01.027Z,11.97
2018-02-02T06:03:26.879Z,12.57
2018-02-02T06:05:52.744Z,13.20
2018-02-02T06:08:18.729Z,11.87
2018-02-02T06:10:44.571Z,12.67
2018-02-02T06:13:10.430Z,11.23
2018-02-02T06:15:36.276Z,10.23
2018-02-02T06:18:02.170Z,9.90
2018-02-02T06:20:28.020Z,11.03
2018-02-02T06:22:53.863Z,10.73
2018-02-02T06:25:19.726Z,10.60
2018-02-02T06:27:45.966Z,10.33
2018-02-02T06:30:11.819Z,10.37
2018-02-02T06:32:37.669Z,9.87
2018-02-02T06:35:03.529Z,9.37
2018-02-02T06:37:29.386Z,10.70
2018-02-02T06:39:55.247Z,9.13
2018-02-02T06:42:21.097Z,9.37
2018-02-02T06:44:46.939Z,9.20
2018-02-02T06:47:12.813Z,8.90
2018-02-02T06:49:38.666Z,8.30
2018-02-02T06:52:04.535Z,8.77
2018-02-02T06:54:30.377Z,8.37
2018-02-02T06:56:56.236Z,8.47
2018-02-02T06:59:22.075Z,8.30
2018-02-02T07:01:47.930Z,7.57
2018-02-02T07:04:13.810Z,7.93
2018-02-02T07:06:39.661Z,7.93
2018-02-02T07:09:05.534Z,7.70
2018-02-02T07:11:31.382Z,7.73
2018-02-02T07:13:57.229Z,7.27
2018-02-02T07:16:23.106Z,7.00
2018-02-02T07:18:48.956Z,7.30
2018-02-02T07:21:14.820Z,6.97
2018-02-02T07:23:40.662Z,6.67
2018-02-02T07:26:06.518Z,7.37
2018-02-02T07:28:32.383Z,6.80
2018-02-02T07:30:58.278Z,6.67
2018-02-02T07:33:24.126Z,6.80
2018-02-02T07:35:49.977Z,6.60
2018-02-02T07:38:15.822Z,6.37
2018-02-02T07:40:41.703Z,6.30
2018-02-02T07:43:07.551Z,5.83
2018-02-02T07:45:33.396Z,6.40
2018-02-02T07:47:59.388Z,5.93
2018-02-02T07:50:25.244Z,6.03
2018-02-02T07:52:51.106Z,6.10
2018-02-02T07:55:16.984Z,5.57
2018-02-02T07:57:42.803Z,5.87
2018-02-02T08:00:08.683Z,5.70
2018-02-02T08:02:34.516Z,5.63
2018-02-02T08:05:00.399Z,5.20
2018-02-02T08:07:26.234Z,4.80
2018-02-02T08:09:52.280Z,5.50
2018-02-02T08:12:18.131Z,5.20
2018-02-02T08:14:43.984Z,4.83
2018-02-02T08:17:09.861Z,4.80
2018-02-02T08:19:35.743Z,4.67
2018-02-02T08:22:01.606Z,4.43
2018-02-02T08:24:27.452Z,4.60
2018-02-02T08:26:53.297Z,5.00
2018-02-02T08:29:19.159Z,4.83
2018-02-02T08:31:45.032Z,4.40
2018-02-02T08:34:10.867Z,4.80
2018-02-02T08:36:36.718Z,5.07
2018-02-02T08:39:02.571Z,4.70
2018-02-02T08:41:28.451Z,4.77
2018-02-02T08:43:54.554Z,4.43
2018-02-02T08:46:20.405Z,4.60
2018-02-02T08:48:46.261Z,4.20
2018-02-02T08:51:12.115Z,4.00
2018-02-02T08:53:37.982Z,4.00
2018-02-02T08:56:03.952Z,4.37
2018-02-02T08:58:29.808Z,4.07
2018-02-02T09:00:55.666Z,4.37
2018-02-02T09:03:21.513Z,4.03
2018-02-02T09:05:47.422Z,4.10
2018-02-02T09:08:13.279Z,3.93
2018-02-02T09:10:39.129Z,4.03
2018-02-02T09:13:05.019Z,3.80
2018-02-02T09:15:30.834Z,4.00
2018-02-02T09:17:56.747Z,3.57
2018-02-02T09:20:22.624Z,4.00
2018-02-02T09:22:48.475Z,4.33
2018-02-02T09:25:14.429Z,3.40
2018-02-02T09:27:40.277Z,3.63
2018-02-02T09:30:06.183Z,3.87
2018-02-02T09:32:32.035Z,4.03
2018-02-02T09:34:57.891Z,4.00
2018-02-02T09:37:23.731Z,3.80
2018-02-02T09:39:49.932Z,3.30
2018-02-02T09:42:15.782Z,4.03
2018-02-02T09:44:41.703Z,3.57
2018-02-02T09:47:07.820Z,3.60
2018-02-02T09:49:33.692Z,3.00
2018-02-02T09:51:59.531Z,3.47
2018-02-02T09:54:25.378Z,3.40
2018-02-02T09:56:51.281Z,2.90
2018-02-02T09:59:17.183Z,3.40
2018-02-02T10:01:43.108Z,3.37
2018-02-02T10:04:08.974Z,3.20
2018-02-02T10:06:34.811Z,3.40
2018-02-02T10:09:00.664Z,4.10
2018-02-02T10:11:26.558Z,3.40
2018-02-02T10:13:52.391Z,3.60
2018-02-02T10:16:18.230Z,3.30
2018-02-02T10:18:44.080Z,3.57
2018-02-02T10:21:09.927Z,2.70
2018-02-02T10:23:35.824Z,3.00
2018-02-02T10:26:01.672Z,3.07
2018-02-02T10:28:27.523Z,2.70
2018-02-02T10:30:53.370Z,2.93
2018-02-02T10:33:19.214Z,3.23
2018-02-02T10:35:45.091Z,2.70
2018-02-02T10:38:10.948Z,3.17
2018-02-02T10:40:36.791Z,3.00
2018-02-02T10:43:02.699Z,2.70
2018-02-02T10:45:28.548Z,3.10
2018-02-02T10:47:54.408Z,3.00
2018-02-02T10:50:20.245Z,2.67
2018-02-02T10:52:46.096Z,2.83
2018-02-02T10:55:11.944Z,2.60
2018-02-02T10:57:37.909Z,2.63
2018-02-02T11:00:03.776Z,2.77
2018-02-02T11:02:29.616Z,2.53
2018-02-02T11:04:55.477Z,2.83
2018-02-02T11:07:21.450Z,3.17
2018-02-02T11:09:47.308Z,2.97
2018-02-02T11:12:13.170Z,3.30
2018-02-02T11:14:39.022Z,2.53
2018-02-02T11:17:04.882Z,2.63
2018-02-02T11:19:30.735Z,2.70
2018-02-02T11:21:56.600Z,2.80
2018-02-02T11:24:22.459Z,2.73
2018-02-02T11:26:48.291Z,2.50
2018-02-02T11:29:14.196Z,2.43
2018-02-02T11:31:40.190Z,2.30
2018-02-02T11:34:06.043Z,3.00
2018-02-02T11:36:32.206Z,2.80
2018-02-02T11:38:58.065Z,2.40
2018-02-02T11:41:23.899Z,2.73
2018-02-02T11:43:49.746Z,2.40
2018-02-02T11:46:15.591Z,2.57
2018-02-02T11:48:41.485Z,2.47
2018-02-02T11:51:07.332Z,2.30
2018-02-02T11:53:33.224Z,2.50
2018-02-02T11:55:59.162Z,2.33
2018-02-02T11:58:25.024Z,2.50
2018-02-02T12:00:50.894Z,2.20
2018-02-02T12:03:16.751Z,2.47
2018-02-02T12:05:42.726Z,2.30
2018-02-02T12:08:08.559Z,2.30
2018-02-02T12:10:34.431Z,2.37
2018-02-02T12:13:00.292Z,2.47
2018-02-02T12:15:26.140Z,2.27
2018-02-02T12:17:52.000Z,2.33
2018-02-02T12:20:17.856Z,2.70
2018-02-02T12:22:43.723Z,2.47
2018-02-02T12:25:09.588Z,2.77
2018-02-02T12:27:35.430Z,2.63
2018-02-02T12:30:01.286Z,2.70
2018-02-02T12:32:27.118Z,3.07
2018-02-02T12:34:53.200Z,2.70
2018-02-02T12:37:19.047Z,2.90
2018-02-02T12:39:45.002Z,2.50
2018-02-02T12:42:10.878Z,2.37
2018-02-02T12:44:36.727Z,2.50
2018-02-02T12:47:02.576Z,2.63
2018-02-02T12:49:28.432Z,2.60
2018-02-02T12:51:54.282Z,2.47
2018-02-02T12:54:20.173Z,2.97
2018-02-02T12:56:46.306Z,2.67
2018-02-02T12:59:12.111Z,2.80
2018-02-02T13:01:37.969Z,2.80
2018-02-02T13:04:03.807Z,2.80
2018-02-02T13:06:30.417Z,2.90
2018-02-02T13:08:56.259Z,3.10
2018-02-02T13:11:22.113Z,2.70
2018-02-02T13:13:47.955Z,3.23
2018-02-02T13:16:13.812Z,2.83
2018-02-02T13:18:39.685Z,2.63
2018-02-02T13:21:05.536Z,2.80
2018-02-02T13:23:31.410Z,2.80
2018-02-02T13:25:57.235Z,2.90
2018-02-02T13:28:23.093Z,2.70
2018-02-02T13:30:48.956Z,2.57
2018-02-02T13:33:14.810Z,2.30
2018-02-02T13:35:40.788Z,2.80
2018-02-02T13:38:06.632Z,2.87
2018-02-02T13:40:32.483Z,2.57
2018-02-02T13:42:58.355Z,2.50
2018-02-02T13:45:24.255Z,2.53
2018-02-02T13:47:50.225Z,2.57
2018-02-02T13:50:16.061Z,2.70
2018-02-02T13:52:41.915Z,2.67
2018-02-02T13:55:08.159Z,2.47
2018-02-02T13:57:34.005Z,2.30
2018-02-02T13:59:59.856Z,2.07
2018-02-02T14:02:25.741Z,2.53
2018-02-02T14:04:51.595Z,2.40
2018-02-02T14:07:17.439Z,2.40
2018-02-02T14:09:43.321Z,2.20
2018-02-02T14:12:09.174Z,2.60
2018-02-02T14:14:35.048Z,2.40
2018-02-02T14:17:00.870Z,2.40
2018-02-02T14:19:26.748Z,2.17
2018-02-02T14:21:52.649Z,2.50
2018-02-02T14:24:18.439Z,2.43
2018-02-02T14:26:44.515Z,2.00
2018-02-02T14:29:10.359Z,2.30
2018-02-02T14:31:36.207Z,2.30
2018-02-02T14:34:02.080Z,2.30
2018-02-02T14:36:27.938Z,2.10
2018-02-02T14:38:53.801Z,2.20
2018-02-02T14:41:19.652Z,2.03
2018-02-02T14:43:45.499Z,2.07
2018-02-02T14:46:11.366Z,1.93
2018-02-02T14:48:37.236Z,2.17
2018-02-02T14:51:03.067Z,2.13
2018-02-02T14:53:28.927Z,2.10
2018-02-02T14:55:54.776Z,2.63
2018-02-02T14:58:20.662Z,2.30
2018-02-02T15:00:46.502Z,2.60
2018-02-02T15:03:12.353Z,2.83
2018-02-02T15:05:38.213Z,2.50
2018-02-02T15:08:04.073Z,2.60
2018-02-02T15:10:29.960Z,2.27
2018-02-02T15:12:55.811Z,2.63
2018-02-02T15:15:21.655Z,2.17
2018-02-02T15:17:47.529Z,2.30
2018-02-02T15:20:13.365Z,2.43
2018-02-02T15:22:39.227Z,2.30
2018-02-02T15:25:05.070Z,2.70
2018-02-02T15:27:30.930Z,12.17
2018-02-02T15:29:56.837Z,5.63
2018-02-02T15:32:22.694Z,7.33
2018-02-02T15:34:48.557Z,6.60
2018-02-02T15:37:14.437Z,5.60
2018-02-02T15:39:40.284Z,5.50
2018-02-02T15:42:06.139Z,4.70
2018-02-02T15:44:31.994Z,4.60
2018-02-02T15:46:57.880Z,5.07
2018-02-02T15:49:23.703Z,4.20
2018-02-02T15:51:49.572Z,4.27
2018-02-02T15:54:15.439Z,4.03
2018-02-02T15:56:41.279Z,4.30
2018-02-02T15:59:07.151Z,3.43
2018-02-02T16:01:33.012Z,3.67
2018-02-02T16:03:58.855Z,4.10
2018-02-02T16:06:24.732Z,3.77
2018-02-02T16:08:50.632Z,4.13
2018-02-02T16:11:16.485Z,3.90
2018-02-02T16:13:42.336Z,3.27
2018-02-02T16:16:08.200Z,3.93
2018-02-02T16:18:34.195Z,3.57
2018-02-02T16:21:00.049Z,4.63
2018-02-02T16:23:25.920Z,3.27
2018-02-02T16:25:51.757Z,3.10
2018-02-02T16:28:17.620Z,3.63
2018-02-02T16:30:43.464Z,2.97
2018-02-02T16:33:09.328Z,3.53
2018-02-02T16:35:35.198Z,3.40
2018-02-02T16:38:01.033Z,3.30
2018-02-02T16:40:26.897Z,4.40
2018-02-02T16:42:52.737Z,4.90
2018-02-02T16:45:18.588Z,4.10
2018-02-02T16:47:44.510Z,4.20
2018-02-02T16:50:10.376Z,4.67
2018-02-02T16:52:36.231Z,4.97
2018-02-02T16:55:02.075Z,4.07
2018-02-02T16:57:27.920Z,3.97
2018-02-02T16:59:54.839Z,4.03
2018-02-02T17:02:20.753Z,3.57
2018-02-02T17:04:46.598Z,3.63
2018-02-02T17:07:12.436Z,4.00
2018-02-02T17:09:38.295Z,4.53
2018-02-02T17:12:04.159Z,3.83
2018-02-02T17:14:30.034Z,4.33
2018-02-02T17:16:55.876Z,3.97
2018-02-02T17:19:21.739Z,3.43
2018-02-02T17:21:47.611Z,4.03
2018-02-02T17:24:13.460Z,3.97
2018-02-02T17:26:39.304Z,4.10
2018-02-02T17:29:05.154Z,3.80
2018-02-02T17:31:31.001Z,3.57
2018-02-02T17:33:56.896Z,3.97
2018-02-02T17:36:22.733Z,3.47
2018-02-02T17:38:48.584Z,3.60
2018-02-02T17:41:14.441Z,3.63
2018-02-02T17:43:40.310Z,3.83
2018-02-02T17:46:06.174Z,3.17
2018-02-02T17:48:32.053Z,3.60
2018-02-02T17:50:57.899Z,3.33
2018-02-02T17:53:23.762Z,3.90
2018-02-02T17:55:49.733Z,3.73
2018-02-02T17:58:15.622Z,3.60
2018-02-02T18:00:41.463Z,3.30
2018-02-02T18:03:07.316Z,3.20
2018-02-02T18:05:33.172Z,3.07
2018-02-02T18:07:59.041Z,2.93
2018-02-02T18:10:25.164Z,3.23
2018-02-02T18:12:51.016Z,3.00
2018-02-02T18:15:16.955Z,3.00
2018-02-02T18:17:42.800Z,2.87
2018-02-02T18:20:08.656Z,3.03
2018-02-02T18:22:34.537Z,2.80
2018-02-02T18:25:00.382Z,2.70
2018-02-02T18:27:26.287Z,2.80
2018-02-02T18:29:52.128Z,3.00
2018-02-02T18:32:18.002Z,2.93
2018-02-02T18:34:43.849Z,2.70
2018-02-02T18:37:09.705Z,2.70
2018-02-02T18:39:35.580Z,3.03
2018-02-02T18:42:01.438Z,3.00
2018-02-02T18:44:27.280Z,2.93
2018-02-02T18:46:53.289Z,2.63
2018-02-02T18:49:19.150Z,2.70
2018-02-02T18:51:44.996Z,3.07
2018-02-02T18:54:10.849Z,2.67
2018-02-02T18:56:36.701Z,2.80
2018-02-02T18:59:02.596Z,2.77
2018-02-02T19:01:28.464Z,3.40
2018-02-02T19:03:54.313Z,2.77
2018-02-02T19:06:20.224Z,3.10
2018-02-02T19:08:46.756Z,3.53
2018-02-02T19:11:13.554Z,3.57
2018-02-02T19:13:39.410Z,3.93
2018-02-02T19:16:05.245Z,3.30
2018-02-02T19:18:31.137Z,3.20
2018-02-02T19:20:56.978Z,2.97
2018-02-02T19:23:22.863Z,3.30
2018-02-02T19:25:48.709Z,3.33
2018-02-02T19:28:14.586Z,3.80
2018-02-02T19:30:40.452Z,3.27
2018-02-02T19:33:06.297Z,3.60
2018-02-02T19:35:32.168Z,3.40
2018-02-02T19:38:00.717Z,3.07
2018-02-02T19:40:26.576Z,3.70
2018-02-02T19:42:52.431Z,3.60
2018-02-02T19:45:18.327Z,3.40
2018-02-02T19:47:44.245Z,3.60
2018-02-02T19:50:10.145Z,3.37
2018-02-02T19:52:36.023Z,3.93
2018-02-02T19:55:01.870Z,3.50
2018-02-02T19:57:27.896Z,3.30
2018-02-02T19:59:53.795Z,3.50
2018-02-02T20:02:19.651Z,3.43
2018-02-02T20:04:45.490Z,3.67
2018-02-02T20:07:11.386Z,3.70
2018-02-02T20:09:37.279Z,3.57
2018-02-02T20:12:03.158Z,3.77
2018-02-02T20:14:29.041Z,3.60
2018-02-02T20:16:54.900Z,3.63
2018-02-02T20:19:20.807Z,3.70
2018-02-02T20:21:46.663Z,3.93
2018-02-02T20:24:12.519Z,3.87
2018-02-02T20:26:38.530Z,4.20
2018-02-02T20:29:04.405Z,3.50
2018-02-02T20:31:30.294Z,3.67
2018-02-02T20:33:56.153Z,4.30
2018-02-02T20:36:22.006Z,3.97
2018-02-02T20:38:48.258Z,3.97
2018-02-02T20:41:14.109Z,3.80
2018-02-02T20:43:40.021Z,3.60
2018-02-02T20:46:05.990Z,3.70
2018-02-02T20:48:31.848Z,4.10
2018-02-02T20:50:57.759Z,4.00
2018-02-02T20:53:23.667Z,3.50
2018-02-02T20:55:49.522Z,3.60
2018-02-02T20:58:15.500Z,3.73
2018-02-02T21:00:41.338Z,3.80
2018-02-02T21:03:07.243Z,4.50
2018-02-02T21:05:33.264Z,4.13
2018-02-02T21:07:59.106Z,4.10
2018-02-02T21:10:24.996Z,3.93
2018-02-02T21:16:35.321Z,4.17
2018-02-02T21:19:01.178Z,3.80
2018-02-02T21:21:27.039Z,4.40
2018-02-02T21:23:52.894Z,3.93
2018-02-02T21:26:18.882Z,3.83
2018-02-02T21:28:44.750Z,4.40
2018-02-02T21:31:10.625Z,3.83
2018-02-02T21:33:36.489Z,4.03
2018-02-02T21:36:02.340Z,4.57
2018-02-02T21:38:28.189Z,4.17
2018-02-02T21:40:53.992Z,4.30
2018-02-02T21:43:20.033Z,4.43
2018-02-02T21:45:45.894Z,5.13
2018-02-02T21:48:11.749Z,5.20
2018-02-02T21:50:37.593Z,5.00
2018-02-02T21:53:03.469Z,5.80
2018-02-02T21:55:29.344Z,5.37
2018-02-02T21:57:55.175Z,5.27
2018-02-02T22:00:21.149Z,5.10
2018-02-02T22:02:46.979Z,5.67
2018-02-02T22:05:12.836Z,5.63
2018-02-02T22:07:39.445Z,5.40
2018-02-02T22:10:05.374Z,5.10
2018-02-02T22:12:32.051Z,5.60
2018-02-02T22:14:58.785Z,5.10
2018-02-02T22:17:25.480Z,5.50
2018-02-02T22:19:52.181Z,5.10
2018-02-02T22:22:18.879Z,5.60
2018-02-02T22:24:45.616Z,5.50
2018-02-02T22:27:12.293Z,5.97
2018-02-02T22:29:39.005Z,6.00
2018-02-02T22:32:05.764Z,5.53
2018-02-02T22:34:32.535Z,6.07
2018-02-02T22:36:59.255Z,5.90
2018-02-02T22:39:25.953Z,6.10
2018-02-02T22:41:52.648Z,5.87
2018-02-02T22:44:19.356Z,6.07
2018-02-02T22:46:46.128Z,6.30
2018-02-02T22:49:12.810Z,5.83
2018-02-02T22:51:39.522Z,6.10
2018-02-02T22:54:06.228Z,6.20
2018-02-02T22:56:32.955Z,6.13
2018-02-02T22:58:59.632Z,6.17
2018-02-02T23:01:26.328Z,6.47
2018-02-02T23:03:53.019Z,6.53
2018-02-02T23:06:19.726Z,6.70
2018-02-02T23:08:46.452Z,6.07
2018-02-02T23:11:13.143Z,6.40
2018-02-02T23:13:39.873Z,6.57
2018-02-02T23:16:06.672Z,6.67
2018-02-02T23:18:33.360Z,7.00
2018-02-02T23:21:00.129Z,6.70
2018-02-02T23:23:26.768Z,6.70
2018-02-02T23:25:53.452Z,6.70
2018-02-02T23:28:20.161Z,7.13
2018-02-02T23:30:47.611Z,6.93
2018-02-02T23:33:14.352Z,6.40
2018-02-02T23:35:41.083Z,6.57
2018-02-02T23:38:07.806Z,7.17
2018-02-02T23:40:34.505Z,6.47
2018-02-02T23:43:01.201Z,6.43
2018-02-02T23:45:28.562Z,6.77
2018-02-02T23:47:55.251Z,6.87
2018-02-02T23:50:21.946Z,6.33
2018-02-02T23:52:48.663Z,6.80
2018-02-02T23:55:15.382Z,6.27
2018-02-02T23:57:42.092Z,6.80
